sensor_id;sensor_type;location;lat;lon;timestamp;pressure;altitude;pressure_sealevel;temperature;humidity
45864;BME280;31579;52.354;16.974;2023-01-29T00:00:25;396.4;;;-146.1;100.0
45864;BME280;31579;52.354;16.974;2023-01-29T00:01:28;396.9;;;-146.1;100.0
45864;BME280;31579;52.354;16.974;2023-01-29T00:02:31;396.9;;;-146.1;100.0
45864;BME280;31579;52.354;16.974;2023-01-29T00:03:34;397.2;;;-146.1;100.0
45864;BME280;31579;52.354;16.974;2023-01-29T00:04:37;397.2;;;-146.1;100.0
45864;BME280;31579;52.354;16.974;2023-01-29T00:05:40;396.7;;;-146.1;100.0
45864;BME280;31579;52.354;16.974;2023-01-29T00:06:43;396.9;;;-146.1;100.0
45864;BME280;31579;52.354;16.974;2023-01-29T00:07:46;397.2;;;-146.1;100.0
45864;BME280;31579;52.354;16.974;2023-01-29T00:08:49;394.4;;;-146.1;100.0
45864;BME280;31579;52.354;16.974;2023-01-29T00:09:59;377.7;;;-146.1;100.0
45864;BME280;31579;52.354;16.974;2023-01-29T00:11:01;433.7;;;-146.1;100.0
45864;BME280;31579;52.354;16.974;2023-01-29T00:12:05;388.3;;;-146.1;100.0
45864;BME280;31579;52.354;16.974;2023-01-29T00:13:08;383.6;;;-146.1;100.0
45864;BME280;31579;52.354;16.974;2023-01-29T00:14:11;381.1;;;-146.1;100.0
45864;BME280;31579;52.354;16.974;2023-01-29T00:15:14;379.4;;;-146.1;100.0
45864;BME280;31579;52.354;16.974;2023-01-29T00:16:17;377.3;;;-146.1;100.0
45864;BME280;31579;52.354;16.974;2023-01-29T00:17:20;374.8;;;-146.1;100.0
45864;BME280;31579;52.354;16.974;2023-01-29T00:18:23;373.5;;;-146.1;100.0
45864;BME280;31579;52.354;16.974;2023-01-29T00:19:26;371.7;;;-146.1;100.0
45864;BME280;31579;52.354;16.974;2023-01-29T00:20:29;370.7;;;-146.1;100.0
45864;BME280;31579;52.354;16.974;2023-01-29T00:21:32;369.6;;;-146.1;100.0
45864;BME280;31579;52.354;16.974;2023-01-29T00:22:35;368.1;;;-146.1;100.0
45864;BME280;31579;52.354;16.974;2023-01-29T00:23:38;367.5;;;-146.1;100.0
45864;BME280;31579;52.354;16.974;2023-01-29T00:24:42;365.4;;;-146.1;100.0
45864;BME280;31579;52.354;16.974;2023-01-29T00:25:46;365.5;;;-146.1;100.0
45864;BME280;31579;52.354;16.974;2023-01-29T00:26:48;365.6;;;-146.1;100.0
45864;BME280;31579;52.354;16.974;2023-01-29T00:27:51;365.2;;;-146.1;100.0
45864;BME280;31579;52.354;16.974;2023-01-29T00:28:53;380.8;;;-146.1;100.0
45864;BME280;31579;52.354;16.974;2023-01-29T00:29:55;369.0;;;-146.1;100.0
45864;BME280;31579;52.354;16.974;2023-01-29T00:30:58;348.3;;;-146.1;100.0
45864;BME280;31579;52.354;16.974;2023-01-29T00:32:02;337.7;;;-146.1;100.0
45864;BME280;31579;52.354;16.974;2023-01-29T00:33:05;384.3;;;-146.1;100.0
45864;BME280;31579;52.354;16.974;2023-01-29T00:34:08;380.1;;;-146.1;100.0
45864;BME280;31579;52.354;16.974;2023-01-29T00:35:11;378.6;;;-146.1;100.0
45864;BME280;31579;52.354;16.974;2023-01-29T00:36:15;376.8;;;-146.1;100.0
45864;BME280;31579;52.354;16.974;2023-01-29T00:37:17;374.6;;;-146.1;100.0
45864;BME280;31579;52.354;16.974;2023-01-29T00:38:20;373.4;;;-146.1;100.0
45864;BME280;31579;52.354;16.974;2023-01-29T00:39:23;371.1;;;-146.1;100.0
45864;BME280;31579;52.354;16.974;2023-01-29T00:40:26;369.7;;;-146.1;100.0
45864;BME280;31579;52.354;16.974;2023-01-29T00:41:29;368.2;;;-146.1;100.0
45864;BME280;31579;52.354;16.974;2023-01-29T00:42:32;367.4;;;-146.1;100.0
45864;BME280;31579;52.354;16.974;2023-01-29T00:43:35;365.5;;;-146.1;100.0
45864;BME280;31579;52.354;16.974;2023-01-29T00:44:38;364.4;;;-146.1;100.0
45864;BME280;31579;52.354;16.974;2023-01-29T00:45:41;363.9;;;-146.1;100.0
45864;BME280;31579;52.354;16.974;2023-01-29T00:46:44;362.7;;;-146.1;100.0
45864;BME280;31579;52.354;16.974;2023-01-29T00:47:48;360.8;;;-146.1;100.0
45864;BME280;31579;52.354;16.974;2023-01-29T00:48:51;360.1;;;-146.1;100.0
45864;BME280;31579;52.354;16.974;2023-01-29T00:49:54;375.9;;;-146.1;100.0
45864;BME280;31579;52.354;16.974;2023-01-29T00:50:57;347.5;;;-146.1;100.0
45864;BME280;31579;52.354;16.974;2023-01-29T00:52:00;354.4;;;-146.1;100.0
45864;BME280;31579;52.354;16.974;2023-01-29T00:53:03;358.5;;;-146.1;100.0
45864;BME280;31579;52.354;16.974;2023-01-29T00:54:06;361.5;;;-146.1;100.0
45864;BME280;31579;52.354;16.974;2023-01-29T00:55:09;363.0;;;-146.1;100.0
45864;BME280;31579;52.354;16.974;2023-01-29T00:56:12;363.9;;;-146.1;100.0
45864;BME280;31579;52.354;16.974;2023-01-29T00:57:15;364.3;;;-146.1;100.0
45864;BME280;31579;52.354;16.974;2023-01-29T00:58:18;364.3;;;-146.1;100.0
45864;BME280;31579;52.354;16.974;2023-01-29T00:59:21;364.0;;;-146.1;100.0
45864;BME280;31579;52.354;16.974;2023-01-29T01:00:24;364.4;;;-146.1;100.0
45864;BME280;31579;52.354;16.974;2023-01-29T01:01:27;364.6;;;-146.1;100.0
45864;BME280;31579;52.354;16.974;2023-01-29T01:02:30;364.6;;;-146.1;100.0
45864;BME280;31579;52.354;16.974;2023-01-29T01:03:33;364.7;;;-146.1;100.0
45864;BME280;31579;52.354;16.974;2023-01-29T01:04:36;365.4;;;-146.1;100.0
45864;BME280;31579;52.354;16.974;2023-01-29T01:05:39;366.3;;;-146.1;100.0
45864;BME280;31579;52.354;16.974;2023-01-29T01:06:42;366.6;;;-146.1;100.0
45864;BME280;31579;52.354;16.974;2023-01-29T01:07:47;367.6;;;-146.1;100.0
45864;BME280;31579;52.354;16.974;2023-01-29T01:08:48;367.6;;;-146.1;100.0
45864;BME280;31579;52.354;16.974;2023-01-29T01:09:51;368.3;;;-146.1;100.0
45864;BME280;31579;52.354;16.974;2023-01-29T01:11:57;356.4;;;-146.1;100.0
45864;BME280;31579;52.354;16.974;2023-01-29T01:13:03;339.5;;;-146.1;100.0
45864;BME280;31579;52.354;16.974;2023-01-29T01:14:05;381.7;;;-146.1;100.0
45864;BME280;31579;52.354;16.974;2023-01-29T01:15:08;376.3;;;-146.1;100.0
45864;BME280;31579;52.354;16.974;2023-01-29T01:16:12;373.6;;;-146.1;100.0
45864;BME280;31579;52.354;16.974;2023-01-29T01:17:14;371.8;;;-146.1;100.0
45864;BME280;31579;52.354;16.974;2023-01-29T01:18:17;370.9;;;-146.1;100.0
45864;BME280;31579;52.354;16.974;2023-01-29T01:19:20;370.0;;;-146.1;100.0
45864;BME280;31579;52.354;16.974;2023-01-29T01:20:24;369.7;;;-146.1;100.0
45864;BME280;31579;52.354;16.974;2023-01-29T01:21:26;370.3;;;-146.1;100.0
45864;BME280;31579;52.354;16.974;2023-01-29T01:22:29;370.3;;;-146.1;100.0
45864;BME280;31579;52.354;16.974;2023-01-29T01:23:33;370.6;;;-146.1;100.0
45864;BME280;31579;52.354;16.974;2023-01-29T01:24:36;371.5;;;-146.1;100.0
45864;BME280;31579;52.354;16.974;2023-01-29T01:25:40;372.3;;;-146.1;100.0
45864;BME280;31579;52.354;16.974;2023-01-29T01:26:43;374.2;;;-146.1;100.0
45864;BME280;31579;52.354;16.974;2023-01-29T01:27:46;375.5;;;-146.1;100.0
45864;BME280;31579;52.354;16.974;2023-01-29T01:28:49;377.2;;;-146.1;100.0
45864;BME280;31579;52.354;16.974;2023-01-29T01:29:52;379.0;;;-146.1;100.0
45864;BME280;31579;52.354;16.974;2023-01-29T01:30:55;398.9;;;-146.1;100.0
45864;BME280;31579;52.354;16.974;2023-01-29T01:31:58;367.7;;;-146.1;100.0
45864;BME280;31579;52.354;16.974;2023-01-29T01:33:08;385.0;;;-146.1;100.0
45864;BME280;31579;52.354;16.974;2023-01-29T01:34:11;419.6;;;-146.1;100.0
45864;BME280;31579;52.354;16.974;2023-01-29T01:35:14;400.9;;;-146.1;100.0
45864;BME280;31579;52.354;16.974;2023-01-29T01:36:17;391.1;;;-146.1;100.0
45864;BME280;31579;52.354;16.974;2023-01-29T01:37:20;386.5;;;-146.1;100.0
45864;BME280;31579;52.354;16.974;2023-01-29T01:38:23;384.2;;;-146.1;100.0
45864;BME280;31579;52.354;16.974;2023-01-29T01:39:26;384.1;;;-146.1;100.0
45864;BME280;31579;52.354;16.974;2023-01-29T01:40:29;385.0;;;-146.1;100.0
45864;BME280;31579;52.354;16.974;2023-01-29T01:41:32;386.6;;;-146.1;100.0
45864;BME280;31579;52.354;16.974;2023-01-29T01:42:35;388.8;;;-146.1;100.0
45864;BME280;31579;52.354;16.974;2023-01-29T01:45:44;395.7;;;-146.1;100.0
45864;BME280;31579;52.354;16.974;2023-01-29T01:46:47;398.5;;;-146.1;100.0
45864;BME280;31579;52.354;16.974;2023-01-29T01:47:53;401.5;;;-146.1;100.0
45864;BME280;31579;52.354;16.974;2023-01-29T01:48:56;405.0;;;-146.1;100.0
45864;BME280;31579;52.354;16.974;2023-01-29T01:49:57;407.7;;;-146.1;100.0
45864;BME280;31579;52.354;16.974;2023-01-29T01:50:59;410.4;;;-146.1;100.0
45864;BME280;31579;52.354;16.974;2023-01-29T01:52:03;412.1;;;-146.1;100.0
45864;BME280;31579;52.354;16.974;2023-01-29T01:53:07;415.1;;;-146.1;100.0
45864;BME280;31579;52.354;16.974;2023-01-29T01:54:10;417.8;;;-146.1;100.0
45864;BME280;31579;52.354;16.974;2023-01-29T01:55:13;420.1;;;-146.1;100.0
45864;BME280;31579;52.354;16.974;2023-01-29T01:56:17;422.1;;;-146.1;100.0
45864;BME280;31579;52.354;16.974;2023-01-29T01:57:20;425.0;;;-146.1;100.0
45864;BME280;31579;52.354;16.974;2023-01-29T01:58:25;427.2;;;-146.1;100.0
45864;BME280;31579;52.354;16.974;2023-01-29T01:59:26;428.8;;;-146.1;100.0
45864;BME280;31579;52.354;16.974;2023-01-29T02:00:29;431.3;;;-146.1;100.0
45864;BME280;31579;52.354;16.974;2023-01-29T02:01:32;433.3;;;-146.1;100.0
45864;BME280;31579;52.354;16.974;2023-01-29T02:02:36;435.2;;;-146.1;100.0
45864;BME280;31579;52.354;16.974;2023-01-29T02:03:42;436.7;;;-146.1;100.0
45864;BME280;31579;52.354;16.974;2023-01-29T02:04:43;438.6;;;-146.1;100.0
45864;BME280;31579;52.354;16.974;2023-01-29T02:05:44;440.0;;;-146.1;100.0
45864;BME280;31579;52.354;16.974;2023-01-29T02:06:47;441.1;;;-146.1;100.0
45864;BME280;31579;52.354;16.974;2023-01-29T02:07:50;442.4;;;-146.1;100.0
45864;BME280;31579;52.354;16.974;2023-01-29T02:08:55;444.0;;;-146.1;100.0
45864;BME280;31579;52.354;16.974;2023-01-29T02:10:59;448.0;;;-146.1;100.0
45864;BME280;31579;52.354;16.974;2023-01-29T02:12:11;446.9;;;-146.1;100.0
45864;BME280;31579;52.354;16.974;2023-01-29T02:13:12;475.8;;;-146.1;100.0
45864;BME280;31579;52.354;16.974;2023-01-29T02:14:15;461.6;;;-146.1;100.0
45864;BME280;31579;52.354;16.974;2023-01-29T02:15:18;454.6;;;-146.1;100.0
45864;BME280;31579;52.354;16.974;2023-01-29T02:16:21;451.9;;;-146.1;100.0
45864;BME280;31579;52.354;16.974;2023-01-29T02:17:24;451.5;;;-146.1;100.0
45864;BME280;31579;52.354;16.974;2023-01-29T02:18:27;452.7;;;-146.1;100.0
45864;BME280;31579;52.354;16.974;2023-01-29T02:20:33;456.5;;;-146.1;100.0
45864;BME280;31579;52.354;16.974;2023-01-29T02:23:48;464.7;;;-146.1;100.0
45864;BME280;31579;52.354;16.974;2023-01-29T02:28:11;477.2;;;-146.1;100.0
45864;BME280;31579;52.354;16.974;2023-01-29T02:30:04;483.5;;;-146.1;100.0
45864;BME280;31579;52.354;16.974;2023-01-29T02:32:12;488.5;;;-146.1;100.0
45864;BME280;31579;52.354;16.974;2023-01-29T02:34:17;494.0;;;-146.1;100.0
45864;BME280;31579;52.354;16.974;2023-01-29T02:37:25;502.3;;;-146.1;100.0
45864;BME280;31579;52.354;16.974;2023-01-29T02:39:32;508.5;;;-146.1;100.0
45864;BME280;31579;52.354;16.974;2023-01-29T02:48:09;555.2;;;-146.1;100.0
45864;BME280;31579;52.354;16.974;2023-01-29T02:51:34;536.5;;;-146.1;100.0
45864;BME280;31579;52.354;16.974;2023-01-29T02:53:40;528.9;;;-146.1;100.0
45864;BME280;31579;52.354;16.974;2023-01-29T02:57:50;542.5;;;-146.1;100.0
45864;BME280;31579;52.354;16.974;2023-01-29T02:58:57;547.5;;;-146.1;100.0
45864;BME280;31579;52.354;16.974;2023-01-29T02:59:58;552.9;;;-146.1;100.0
45864;BME280;31579;52.354;16.974;2023-01-29T03:02:05;584.4;;;-146.1;100.0
45864;BME280;31579;52.354;16.974;2023-01-29T03:05:14;580.6;;;-146.1;100.0
45864;BME280;31579;52.354;16.974;2023-01-29T03:07:20;595.2;;;-146.1;100.0
45864;BME280;31579;52.354;16.974;2023-01-29T03:08:25;597.8;;;-146.1;100.0
45864;BME280;31579;52.354;16.974;2023-01-29T03:09:25;632.1;;;-146.1;100.0
45864;BME280;31579;52.354;16.974;2023-01-29T03:10:43;668.5;;;-146.1;100.0
45864;BME280;31579;52.354;16.974;2023-01-29T03:11:45;623.5;;;-146.1;100.0
45864;BME280;31579;52.354;16.974;2023-01-29T03:12:48;620.7;;;-146.1;100.0
45864;BME280;31579;52.354;16.974;2023-01-29T03:14:52;621.5;;;-146.1;100.0
45864;BME280;31579;52.354;16.974;2023-01-29T03:15:59;624.1;;;-146.1;100.0
45864;BME280;31579;52.354;16.974;2023-01-29T03:16:59;625.7;;;-146.1;100.0
45864;BME280;31579;52.354;16.974;2023-01-29T03:18:06;628.7;;;-146.1;100.0
45864;BME280;31579;52.354;16.974;2023-01-29T03:19:10;631.5;;;-146.1;100.0
45864;BME280;31579;52.354;16.974;2023-01-29T03:20:10;633.6;;;-146.1;100.0
45864;BME280;31579;52.354;16.974;2023-01-29T03:21:13;636.6;;;-146.1;100.0
45864;BME280;31579;52.354;16.974;2023-01-29T03:22:15;639.2;;;-146.1;100.0
45864;BME280;31579;52.354;16.974;2023-01-29T03:24:25;644.2;;;-146.1;100.0
45864;BME280;31579;52.354;16.974;2023-01-29T03:25:23;647.0;;;-146.1;100.0
45864;BME280;31579;52.354;16.974;2023-01-29T03:26:26;649.0;;;-146.1;100.0
45864;BME280;31579;52.354;16.974;2023-01-29T03:27:31;651.6;;;-146.1;100.0
45864;BME280;31579;52.354;16.974;2023-01-29T03:28:32;654.8;;;-146.1;100.0
45864;BME280;31579;52.354;16.974;2023-01-29T03:29:36;657.1;;;-146.1;100.0
45864;BME280;31579;52.354;16.974;2023-01-29T03:30:41;658.9;;;-146.1;100.0
45864;BME280;31579;52.354;16.974;2023-01-29T03:31:42;661.8;;;-146.1;100.0
45864;BME280;31579;52.354;16.974;2023-01-29T03:32:45;665.2;;;-146.1;100.0
45864;BME280;31579;52.354;16.974;2023-01-29T03:34:53;669.5;;;-146.1;100.0
45864;BME280;31579;52.354;16.974;2023-01-29T03:35:57;672.7;;;-146.1;100.0
45864;BME280;31579;52.354;16.974;2023-01-29T03:36:58;675.0;;;-146.1;100.0
45864;BME280;31579;52.354;16.974;2023-01-29T03:38:10;699.8;;;-146.1;100.0
45864;BME280;31579;52.354;16.974;2023-01-29T03:39:13;703.5;;;-146.1;100.0
45864;BME280;31579;52.354;16.974;2023-01-29T03:40:16;673.7;;;-146.1;100.0
45864;BME280;31579;52.354;16.974;2023-01-29T03:43:34;650.2;;;-146.1;100.0
45864;BME280;31579;52.354;16.974;2023-01-29T03:48:48;658.4;;;-146.1;100.0
45864;BME280;31579;52.354;16.974;2023-01-29T03:56:07;689.5;;;-146.1;100.0
45864;BME280;31579;52.354;16.974;2023-01-29T03:59:20;674.6;;;-146.1;100.0
45864;BME280;31579;52.354;16.974;2023-01-29T04:00:20;684.2;;;-146.1;100.0
45864;BME280;31579;52.354;16.974;2023-01-29T04:01:24;691.0;;;-146.1;100.0
45864;BME280;31579;52.354;16.974;2023-01-29T04:02:26;695.8;;;-146.1;100.0
45864;BME280;31579;52.354;16.974;2023-01-29T04:04:30;703.8;;;-146.1;100.0
45864;BME280;31579;52.354;16.974;2023-01-29T04:05:35;706.6;;;-146.1;100.0
45864;BME280;31579;52.354;16.974;2023-01-29T04:06:35;710.1;;;-146.1;100.0
45864;BME280;31579;52.354;16.974;2023-01-29T04:07:38;712.7;;;-146.1;100.0
45864;BME280;31579;52.354;16.974;2023-01-29T04:09:46;717.8;;;-146.1;100.0
45864;BME280;31579;52.354;16.974;2023-01-29T04:10:48;720.6;;;-146.1;100.0
45864;BME280;31579;52.354;16.974;2023-01-29T04:11:54;723.7;;;-146.1;100.0
45864;BME280;31579;52.354;16.974;2023-01-29T04:12:56;726.1;;;-146.1;100.0
45864;BME280;31579;52.354;16.974;2023-01-29T04:13:57;728.1;;;-146.1;100.0
45864;BME280;31579;52.354;16.974;2023-01-29T04:15:01;706.4;;;-146.1;100.0
45864;BME280;31579;52.354;16.974;2023-01-29T04:16:05;738.0;;;-146.1;100.0
45864;BME280;31579;52.354;16.974;2023-01-29T04:17:08;730.0;;;-146.1;100.0
45864;BME280;31579;52.354;16.974;2023-01-29T04:18:10;726.2;;;-146.1;100.0
45864;BME280;31579;52.354;16.974;2023-01-29T04:19:13;724.8;;;-146.1;100.0
45864;BME280;31579;52.354;16.974;2023-01-29T04:20:16;724.5;;;-146.1;100.0
45864;BME280;31579;52.354;16.974;2023-01-29T04:21:19;725.1;;;-146.1;100.0
45864;BME280;31579;52.354;16.974;2023-01-29T04:22:23;727.3;;;-146.1;100.0
45864;BME280;31579;52.354;16.974;2023-01-29T04:23:26;727.9;;;-146.1;100.0
45864;BME280;31579;52.354;16.974;2023-01-29T04:24:28;729.5;;;-146.1;100.0
45864;BME280;31579;52.354;16.974;2023-01-29T04:25:36;731.1;;;-146.1;100.0
45864;BME280;31579;52.354;16.974;2023-01-29T04:27:41;736.6;;;-146.1;100.0
45864;BME280;31579;52.354;16.974;2023-01-29T04:30:57;749.0;;;-146.1;100.0
45864;BME280;31579;52.354;16.974;2023-01-29T04:33:06;714.8;;;-146.1;100.0
45864;BME280;31579;52.354;16.974;2023-01-29T04:37:15;710.6;;;-146.1;100.0
45864;BME280;31579;52.354;16.974;2023-01-29T04:40:29;714.0;;;-146.1;100.0
45864;BME280;31579;52.354;16.974;2023-01-29T04:42:30;720.4;;;-146.1;100.0
45864;BME280;31579;52.354;16.974;2023-01-29T04:50:56;740.9;;;-146.1;100.0
45864;BME280;31579;52.354;16.974;2023-01-29T04:52:00;742.6;;;-146.1;100.0
45864;BME280;31579;52.354;16.974;2023-01-29T04:56:10;754.4;;;-146.1;100.0
45864;BME280;31579;52.354;16.974;2023-01-29T04:59:18;766.8;;;-146.1;100.0
45864;BME280;31579;52.354;16.974;2023-01-29T05:00:21;768.8;;;-146.1;100.0
45864;BME280;31579;52.354;16.974;2023-01-29T05:01:22;770.2;;;-146.1;100.0
45864;BME280;31579;52.354;16.974;2023-01-29T05:02:25;769.8;;;-146.1;100.0
45864;BME280;31579;52.354;16.974;2023-01-29T05:03:28;771.3;;;-146.1;100.0
45864;BME280;31579;52.354;16.974;2023-01-29T05:04:31;771.6;;;-146.1;100.0
45864;BME280;31579;52.354;16.974;2023-01-29T05:05:34;772.9;;;-146.1;100.0
45864;BME280;31579;52.354;16.974;2023-01-29T05:06:37;772.4;;;-146.1;100.0
45864;BME280;31579;52.354;16.974;2023-01-29T05:07:40;772.8;;;-146.1;100.0
45864;BME280;31579;52.354;16.974;2023-01-29T05:08:43;772.1;;;-146.1;100.0
45864;BME280;31579;52.354;16.974;2023-01-29T05:09:46;770.8;;;-146.1;100.0
45864;BME280;31579;52.354;16.974;2023-01-29T05:10:50;769.5;;;-146.1;100.0
45864;BME280;31579;52.354;16.974;2023-01-29T05:11:52;769.6;;;-146.1;100.0
45864;BME280;31579;52.354;16.974;2023-01-29T05:12:57;768.7;;;-146.1;100.0
45864;BME280;31579;52.354;16.974;2023-01-29T05:13:59;768.8;;;-146.1;100.0
45864;BME280;31579;52.354;16.974;2023-01-29T05:15:01;793.9;;;-146.1;100.0
45864;BME280;31579;52.354;16.974;2023-01-29T05:17:15;779.3;;;-146.1;100.0
45864;BME280;31579;52.354;16.974;2023-01-29T05:18:17;768.0;;;-146.1;100.0
45864;BME280;31579;52.354;16.974;2023-01-29T05:19:20;762.3;;;-146.1;100.0
45864;BME280;31579;52.354;16.974;2023-01-29T05:20:23;758.4;;;-146.1;100.0
45864;BME280;31579;52.354;16.974;2023-01-29T05:21:26;756.4;;;-146.1;100.0
45864;BME280;31579;52.354;16.974;2023-01-29T05:22:29;755.1;;;-146.1;100.0
45864;BME280;31579;52.354;16.974;2023-01-29T05:23:32;754.0;;;-146.1;100.0
45864;BME280;31579;52.354;16.974;2023-01-29T05:24:35;754.0;;;-146.1;100.0
45864;BME280;31579;52.354;16.974;2023-01-29T05:25:38;754.3;;;-146.1;100.0
45864;BME280;31579;52.354;16.974;2023-01-29T05:26:42;754.6;;;-146.1;100.0
45864;BME280;31579;52.354;16.974;2023-01-29T05:27:45;754.2;;;-146.1;100.0
45864;BME280;31579;52.354;16.974;2023-01-29T05:28:48;755.4;;;-146.1;100.0
45864;BME280;31579;52.354;16.974;2023-01-29T05:29:51;756.3;;;-146.1;100.0
45864;BME280;31579;52.354;16.974;2023-01-29T05:30:55;756.9;;;-146.1;100.0
45864;BME280;31579;52.354;16.974;2023-01-29T05:31:57;757.4;;;-146.1;100.0
45864;BME280;31579;52.354;16.974;2023-01-29T05:33:03;737.1;;;-146.1;100.0
45864;BME280;31579;52.354;16.974;2023-01-29T05:34:04;765.1;;;-146.1;100.0
45864;BME280;31579;52.354;16.974;2023-01-29T05:35:07;756.0;;;-146.1;100.0
45864;BME280;31579;52.354;16.974;2023-01-29T05:36:10;751.6;;;-146.1;100.0
45864;BME280;31579;52.354;16.974;2023-01-29T05:37:13;750.2;;;-146.1;100.0
45864;BME280;31579;52.354;16.974;2023-01-29T05:38:17;749.8;;;-146.1;100.0
45864;BME280;31579;52.354;16.974;2023-01-29T05:39:19;750.3;;;-146.1;100.0
45864;BME280;31579;52.354;16.974;2023-01-29T05:40:23;751.0;;;-146.1;100.0
45864;BME280;31579;52.354;16.974;2023-01-29T05:41:25;752.2;;;-146.1;100.0
45864;BME280;31579;52.354;16.974;2023-01-29T05:42:28;753.2;;;-146.1;100.0
45864;BME280;31579;52.354;16.974;2023-01-29T05:43:31;754.7;;;-146.1;100.0
45864;BME280;31579;52.354;16.974;2023-01-29T05:44:34;756.4;;;-146.1;100.0
45864;BME280;31579;52.354;16.974;2023-01-29T05:45:37;757.6;;;-146.1;100.0
45864;BME280;31579;52.354;16.974;2023-01-29T05:46:40;758.9;;;-146.1;100.0
45864;BME280;31579;52.354;16.974;2023-01-29T05:47:44;760.0;;;-146.1;100.0
45864;BME280;31579;52.354;16.974;2023-01-29T05:48:46;761.0;;;-146.1;100.0
45864;BME280;31579;52.354;16.974;2023-01-29T05:49:49;762.5;;;-146.1;100.0
45864;BME280;31579;52.354;16.974;2023-01-29T05:50:52;763.8;;;-146.1;100.0
45864;BME280;31579;52.354;16.974;2023-01-29T05:51:55;765.1;;;-146.1;100.0
45864;BME280;31579;52.354;16.974;2023-01-29T05:52:59;766.1;;;-146.1;100.0
45864;BME280;31579;52.354;16.974;2023-01-29T05:54:00;792.4;;;-146.1;100.0
45864;BME280;31579;52.354;16.974;2023-01-29T05:55:04;763.2;;;-146.1;100.0
45864;BME280;31579;52.354;16.974;2023-01-29T05:56:07;773.5;;;-146.1;100.0
45864;BME280;31579;52.354;16.974;2023-01-29T05:57:09;780.4;;;-146.1;100.0
45864;BME280;31579;52.354;16.974;2023-01-29T05:58:12;783.7;;;-146.1;100.0
45864;BME280;31579;52.354;16.974;2023-01-29T05:59:15;787.1;;;-146.1;100.0
45864;BME280;31579;52.354;16.974;2023-01-29T06:00:18;789.2;;;-146.1;100.0
45864;BME280;31579;52.354;16.974;2023-01-29T06:01:22;790.7;;;-146.1;100.0
45864;BME280;31579;52.354;16.974;2023-01-29T06:02:24;792.4;;;-146.1;100.0
45864;BME280;31579;52.354;16.974;2023-01-29T06:03:28;793.0;;;-146.1;100.0
45864;BME280;31579;52.354;16.974;2023-01-29T06:04:31;794.7;;;-146.1;100.0
45864;BME280;31579;52.354;16.974;2023-01-29T06:06:37;797.7;;;-146.1;100.0
45864;BME280;31579;52.354;16.974;2023-01-29T06:07:40;797.7;;;-146.1;100.0
45864;BME280;31579;52.354;16.974;2023-01-29T06:08:43;798.3;;;-146.1;100.0
45864;BME280;31579;52.354;16.974;2023-01-29T06:09:46;799.3;;;-146.1;100.0
45864;BME280;31579;52.354;16.974;2023-01-29T06:10:49;799.4;;;-146.1;100.0
45864;BME280;31579;52.354;16.974;2023-01-29T06:11:52;799.8;;;-146.1;100.0
45864;BME280;31579;52.354;16.974;2023-01-29T06:12:55;800.3;;;-146.1;100.0
45864;BME280;31579;52.354;16.974;2023-01-29T06:13:58;800.2;;;-146.1;100.0
45864;BME280;31579;52.354;16.974;2023-01-29T06:15:00;825.5;;;-146.1;100.0
45864;BME280;31579;52.354;16.974;2023-01-29T06:16:04;795.1;;;-146.1;100.0
45864;BME280;31579;52.354;16.974;2023-01-29T06:17:06;804.4;;;-146.1;100.0
45864;BME280;31579;52.354;16.974;2023-01-29T06:18:09;809.6;;;-146.1;100.0
45864;BME280;31579;52.354;16.974;2023-01-29T06:19:13;811.7;;;-146.1;100.0
45864;BME280;31579;52.354;16.974;2023-01-29T06:20:16;813.8;;;-146.1;100.0
45864;BME280;31579;52.354;16.974;2023-01-29T06:21:19;814.5;;;-146.1;100.0
45864;BME280;31579;52.354;16.974;2023-01-29T06:22:22;815.0;;;-146.1;100.0
45864;BME280;31579;52.354;16.974;2023-01-29T06:23:25;814.9;;;-146.1;100.0
45864;BME280;31579;52.354;16.974;2023-01-29T06:24:28;813.7;;;-146.1;100.0
45864;BME280;31579;52.354;16.974;2023-01-29T06:25:31;813.0;;;-146.1;100.0
45864;BME280;31579;52.354;16.974;2023-01-29T06:26:34;811.3;;;-146.1;100.0
45864;BME280;31579;52.354;16.974;2023-01-29T06:27:37;809.6;;;-146.1;100.0
45864;BME280;31579;52.354;16.974;2023-01-29T06:28:40;807.3;;;-146.1;100.0
45864;BME280;31579;52.354;16.974;2023-01-29T06:29:43;805.7;;;-146.1;100.0
45864;BME280;31579;52.354;16.974;2023-01-29T06:30:46;803.6;;;-146.1;100.0
45864;BME280;31579;52.354;16.974;2023-01-29T06:31:49;802.2;;;-146.1;100.0
45864;BME280;31579;52.354;16.974;2023-01-29T06:33:07;836.9;;;-146.1;100.0
45864;BME280;31579;52.354;16.974;2023-01-29T06:34:10;806.3;;;-146.1;100.0
45864;BME280;31579;52.354;16.974;2023-01-29T06:35:13;779.7;;;-146.1;100.0
45864;BME280;31579;52.354;16.974;2023-01-29T06:36:16;765.6;;;-146.1;100.0
45864;BME280;31579;52.354;16.974;2023-01-29T06:37:19;757.3;;;-146.1;100.0
45864;BME280;31579;52.354;16.974;2023-01-29T06:38:22;752.9;;;-146.1;100.0
45864;BME280;31579;52.354;16.974;2023-01-29T06:39:25;749.3;;;-146.1;100.0
45864;BME280;31579;52.354;16.974;2023-01-29T06:40:29;746.8;;;-146.1;100.0
45864;BME280;31579;52.354;16.974;2023-01-29T06:41:33;745.6;;;-146.1;100.0
45864;BME280;31579;52.354;16.974;2023-01-29T06:42:35;746.3;;;-146.1;100.0
45864;BME280;31579;52.354;16.974;2023-01-29T06:43:38;745.8;;;-146.1;100.0
45864;BME280;31579;52.354;16.974;2023-01-29T06:44:43;744.7;;;-146.1;100.0
45864;BME280;31579;52.354;16.974;2023-01-29T06:45:47;745.7;;;-146.1;100.0
45864;BME280;31579;52.354;16.974;2023-01-29T06:46:48;746.8;;;-146.1;100.0
45864;BME280;31579;52.354;16.974;2023-01-29T06:47:51;747.8;;;-146.1;100.0
45864;BME280;31579;52.354;16.974;2023-01-29T06:48:56;748.6;;;-146.1;100.0
45864;BME280;31579;52.354;16.974;2023-01-29T06:49:57;749.1;;;-146.1;100.0
45864;BME280;31579;52.354;16.974;2023-01-29T06:51:02;731.6;;;-146.1;100.0
45864;BME280;31579;52.354;16.974;2023-01-29T06:52:04;749.3;;;-146.1;100.0
45864;BME280;31579;52.354;16.974;2023-01-29T06:53:07;739.1;;;-146.1;100.0
45864;BME280;31579;52.354;16.974;2023-01-29T06:54:10;734.8;;;-146.1;100.0
45864;BME280;31579;52.354;16.974;2023-01-29T06:55:13;733.6;;;-146.1;100.0
45864;BME280;31579;52.354;16.974;2023-01-29T06:56:16;733.8;;;-146.1;100.0
45864;BME280;31579;52.354;16.974;2023-01-29T06:57:19;733.9;;;-146.1;100.0
45864;BME280;31579;52.354;16.974;2023-01-29T06:58:22;734.4;;;-146.1;100.0
45864;BME280;31579;52.354;16.974;2023-01-29T06:59:25;735.9;;;-146.1;100.0